sensor_id;sensor_type;location;lat;lon;timestamp;pressure;altitude;pressure_sealevel;temperature;humidity
4199;BME280;2113;50.946;14.610;2022-07-29T00:00:14;97351.75;;;16.36;53.10
4199;BME280;2113;50.946;14.610;2022-07-29T00:02:42;97343.19;;;16.33;53.09
4199;BME280;2113;50.946;14.610;2022-07-29T00:05:11;97337.00;;;16.50;53.01
4199;BME280;2113;50.946;14.610;2022-07-29T00:07:40;97344.88;;;16.50;52.90
4199;BME280;2113;50.946;14.610;2022-07-29T00:10:08;97338.84;;;16.63;51.82
4199;BME280;2113;50.946;14.610;2022-07-29T00:12:36;97328.97;;;16.53;52.06
4199;BME280;2113;50.946;14.610;2022-07-29T00:15:05;97334.63;;;16.45;52.02
4199;BME280;2113;50.946;14.610;2022-07-29T00:17:33;97325.34;;;16.39;52.25
4199;BME280;2113;50.946;14.610;2022-07-29T00:20:01;97325.19;;;16.27;53.05
4199;BME280;2113;50.946;14.610;2022-07-29T00:22:30;97322.72;;;16.23;53.16
4199;BME280;2113;50.946;14.610;2022-07-29T00:24:58;97319.75;;;15.98;54.16
4199;BME280;2113;50.946;14.610;2022-07-29T00:27:26;97319.06;;;15.78;55.00
4199;BME280;2113;50.946;14.610;2022-07-29T00:29:54;97316.69;;;15.90;54.99
4199;BME280;2113;50.946;14.610;2022-07-29T00:32:22;97314.81;;;15.76;54.99
4199;BME280;2113;50.946;14.610;2022-07-29T00:34:51;97308.72;;;15.75;55.12
4199;BME280;2113;50.946;14.610;2022-07-29T00:37:38;97306.88;;;15.44;55.97
4199;BME280;2113;50.946;14.610;2022-07-29T00:40:07;97305.72;;;15.50;56.44
4199;BME280;2113;50.946;14.610;2022-07-29T00:42:41;97312.19;;;15.42;56.31
4199;BME280;2113;50.946;14.610;2022-07-29T00:45:09;97306.25;;;15.39;56.27
4199;BME280;2113;50.946;14.610;2022-07-29T00:47:37;97296.50;;;15.25;56.46
4199;BME280;2113;50.946;14.610;2022-07-29T00:50:07;97299.66;;;15.14;56.85
4199;BME280;2113;50.946;14.610;2022-07-29T00:52:39;97290.59;;;15.04;57.36
4199;BME280;2113;50.946;14.610;2022-07-29T00:55:08;97291.03;;;15.12;57.05
4199;BME280;2113;50.946;14.610;2022-07-29T00:57:37;97290.69;;;15.02;57.38
4199;BME280;2113;50.946;14.610;2022-07-29T01:00:08;97295.50;;;15.10;57.16
4199;BME280;2113;50.946;14.610;2022-07-29T01:02:37;97291.75;;;14.98;57.80
4199;BME280;2113;50.946;14.610;2022-07-29T01:05:06;97285.44;;;14.85;56.70
4199;BME280;2113;50.946;14.610;2022-07-29T01:07:35;97281.28;;;14.81;57.55
4199;BME280;2113;50.946;14.610;2022-07-29T01:10:06;97282.06;;;14.83;58.13
4199;BME280;2113;50.946;14.610;2022-07-29T01:12:36;97273.56;;;14.95;57.82
4199;BME280;2113;50.946;14.610;2022-07-29T01:15:07;97275.88;;;15.01;57.66
4199;BME280;2113;50.946;14.610;2022-07-29T01:17:41;97269.88;;;14.99;58.27
4199;BME280;2113;50.946;14.610;2022-07-29T01:20:25;97274.28;;;14.81;58.27
4199;BME280;2113;50.946;14.610;2022-07-29T01:23:13;97280.13;;;14.69;57.51
4199;BME280;2113;50.946;14.610;2022-07-29T01:25:57;97281.72;;;14.54;57.60
4199;BME280;2113;50.946;14.610;2022-07-29T01:28:39;97279.22;;;14.34;58.41
4199;BME280;2113;50.946;14.610;2022-07-29T01:31:20;97280.16;;;14.50;58.48
4199;BME280;2113;50.946;14.610;2022-07-29T01:33:57;97276.03;;;14.63;58.34
4199;BME280;2113;50.946;14.610;2022-07-29T01:36:31;97264.03;;;14.77;58.13
4199;BME280;2113;50.946;14.610;2022-07-29T01:39:05;97261.13;;;14.83;58.05
4199;BME280;2113;50.946;14.610;2022-07-29T01:41:37;97261.25;;;14.80;58.20
4199;BME280;2113;50.946;14.610;2022-07-29T01:44:13;97255.88;;;14.83;58.54
4199;BME280;2113;50.946;14.610;2022-07-29T01:46:47;97251.56;;;14.82;58.39
4199;BME280;2113;50.946;14.610;2022-07-29T01:49:21;97252.41;;;14.65;58.21
4199;BME280;2113;50.946;14.610;2022-07-29T01:51:51;97249.22;;;14.41;58.47
4199;BME280;2113;50.946;14.610;2022-07-29T01:54:25;97253.38;;;14.27;59.47
4199;BME280;2113;50.946;14.610;2022-07-29T01:56:56;97250.13;;;14.22;59.26
4199;BME280;2113;50.946;14.610;2022-07-29T01:59:27;97251.00;;;14.04;59.69
4199;BME280;2113;50.946;14.610;2022-07-29T02:01:58;97250.22;;;14.02;59.57
4199;BME280;2113;50.946;14.610;2022-07-29T02:04:27;97249.81;;;13.92;59.98
4199;BME280;2113;50.946;14.610;2022-07-29T02:07:00;97246.44;;;14.26;59.57
4199;BME280;2113;50.946;14.610;2022-07-29T02:09:30;97245.84;;;14.39;59.23
4199;BME280;2113;50.946;14.610;2022-07-29T02:12:00;97240.06;;;14.32;59.64
4199;BME280;2113;50.946;14.610;2022-07-29T02:14:36;97233.03;;;14.33;59.50
4199;BME280;2113;50.946;14.610;2022-07-29T02:17:04;97231.25;;;14.16;59.23
4199;BME280;2113;50.946;14.610;2022-07-29T02:19:33;97241.31;;;14.06;59.09
4199;BME280;2113;50.946;14.610;2022-07-29T02:22:01;97230.72;;;14.26;58.95
4199;BME280;2113;50.946;14.610;2022-07-29T02:24:30;97237.03;;;14.22;59.37
4199;BME280;2113;50.946;14.610;2022-07-29T02:26:59;97241.25;;;14.25;59.50
4199;BME280;2113;50.946;14.610;2022-07-29T02:29:31;97237.38;;;14.34;59.24
4199;BME280;2113;50.946;14.610;2022-07-29T02:32:03;97240.56;;;14.21;59.49
4199;BME280;2113;50.946;14.610;2022-07-29T02:34:33;97241.13;;;14.45;58.57
4199;BME280;2113;50.946;14.610;2022-07-29T02:37:03;97243.69;;;14.47;59.12
4199;BME280;2113;50.946;14.610;2022-07-29T02:39:31;97240.91;;;14.50;58.87
4199;BME280;2113;50.946;14.610;2022-07-29T02:42:03;97239.84;;;14.54;58.72
4199;BME280;2113;50.946;14.610;2022-07-29T02:44:34;97241.69;;;14.52;59.06
4199;BME280;2113;50.946;14.610;2022-07-29T02:47:06;97239.75;;;14.38;59.60
4199;BME280;2113;50.946;14.610;2022-07-29T02:49:36;97241.31;;;14.06;60.59
4199;BME280;2113;50.946;14.610;2022-07-29T02:52:08;97251.72;;;13.88;60.50
4199;BME280;2113;50.946;14.610;2022-07-29T02:54:42;97248.91;;;13.74;61.38
4199;BME280;2113;50.946;14.610;2022-07-29T02:57:21;97251.94;;;13.65;61.49
4199;BME280;2113;50.946;14.610;2022-07-29T02:59:52;97255.53;;;13.81;60.97
4199;BME280;2113;50.946;14.610;2022-07-29T03:02:22;97244.84;;;14.05;60.15
4199;BME280;2113;50.946;14.610;2022-07-29T03:04:50;97240.94;;;14.14;60.25
4199;BME280;2113;50.946;14.610;2022-07-29T03:07:20;97238.44;;;14.29;60.27
4199;BME280;2113;50.946;14.610;2022-07-29T03:09:49;97237.19;;;14.37;60.31
4199;BME280;2113;50.946;14.610;2022-07-29T03:12:18;97244.81;;;14.24;60.57
4199;BME280;2113;50.946;14.610;2022-07-29T03:14:46;97246.94;;;14.16;60.20
4199;BME280;2113;50.946;14.610;2022-07-29T03:17:16;97246.56;;;14.23;59.83
4199;BME280;2113;50.946;14.610;2022-07-29T03:19:45;97245.22;;;14.34;60.24
4199;BME280;2113;50.946;14.610;2022-07-29T03:22:13;97244.66;;;14.44;59.94
4199;BME280;2113;50.946;14.610;2022-07-29T03:24:44;97237.41;;;14.68;59.57
4199;BME280;2113;50.946;14.610;2022-07-29T03:27:12;97237.72;;;14.62;59.49
4199;BME280;2113;50.946;14.610;2022-07-29T03:29:40;97249.81;;;14.46;59.38
4199;BME280;2113;50.946;14.610;2022-07-29T03:32:18;97244.13;;;14.38;59.76
4199;BME280;2113;50.946;14.610;2022-07-29T03:34:52;97236.75;;;14.46;59.61
4199;BME280;2113;50.946;14.610;2022-07-29T03:37:20;97241.41;;;14.58;59.22
4199;BME280;2113;50.946;14.610;2022-07-29T03:39:49;97243.88;;;14.61;58.76
4199;BME280;2113;50.946;14.610;2022-07-29T03:42:21;97241.63;;;14.71;58.45
4199;BME280;2113;50.946;14.610;2022-07-29T03:44:56;97237.75;;;14.96;58.18
4199;BME280;2113;50.946;14.610;2022-07-29T03:47:27;97240.31;;;14.80;59.10
4199;BME280;2113;50.946;14.610;2022-07-29T03:50:16;97234.94;;;14.83;59.14
4199;BME280;2113;50.946;14.610;2022-07-29T03:52:46;97230.22;;;14.90;59.02
4199;BME280;2113;50.946;14.610;2022-07-29T03:55:15;97232.53;;;14.96;58.54
4199;BME280;2113;50.946;14.610;2022-07-29T03:57:45;97236.63;;;14.84;58.65
4199;BME280;2113;50.946;14.610;2022-07-29T04:00:14;97231.22;;;15.04;58.35
4199;BME280;2113;50.946;14.610;2022-07-29T04:02:44;97240.56;;;15.26;57.94
4199;BME280;2113;50.946;14.610;2022-07-29T04:05:16;97233.53;;;15.26;58.12
4199;BME280;2113;50.946;14.610;2022-07-29T04:07:45;97236.03;;;15.45;57.99
4199;BME280;2113;50.946;14.610;2022-07-29T04:10:13;97230.44;;;15.36;58.22
4199;BME280;2113;50.946;14.610;2022-07-29T04:12:42;97223.13;;;15.58;58.27
4199;BME280;2113;50.946;14.610;2022-07-29T04:15:11;97232.69;;;15.59;57.99
4199;BME280;2113;50.946;14.610;2022-07-29T04:17:39;97231.25;;;15.70;57.98
4199;BME280;2113;50.946;14.610;2022-07-29T04:20:09;97232.56;;;15.61;58.05
4199;BME280;2113;50.946;14.610;2022-07-29T04:22:40;97228.06;;;15.80;58.01
4199;BME280;2113;50.946;14.610;2022-07-29T04:25:08;97230.94;;;15.92;57.92
4199;BME280;2113;50.946;14.610;2022-07-29T04:27:36;97230.28;;;15.88;58.53
4199;BME280;2113;50.946;14.610;2022-07-29T04:30:24;97231.59;;;15.95;58.00
4199;BME280;2113;50.946;14.610;2022-07-29T04:32:52;97230.53;;;15.99;57.64
4199;BME280;2113;50.946;14.610;2022-07-29T04:35:22;97226.59;;;16.07;57.93
4199;BME280;2113;50.946;14.610;2022-07-29T04:37:50;97227.75;;;16.33;56.55
4199;BME280;2113;50.946;14.610;2022-07-29T04:40:18;97228.81;;;16.60;56.44
4199;BME280;2113;50.946;14.610;2022-07-29T04:42:46;97231.91;;;16.97;56.45
4199;BME280;2113;50.946;14.610;2022-07-29T04:45:15;97218.84;;;16.96;56.75
4199;BME280;2113;50.946;14.610;2022-07-29T04:47:48;97226.06;;;16.92;56.82
4199;BME280;2113;50.946;14.610;2022-07-29T04:50:16;97230.69;;;17.03;55.93
4199;BME280;2113;50.946;14.610;2022-07-29T04:52:45;97225.72;;;17.13;56.18
4199;BME280;2113;50.946;14.610;2022-07-29T04:55:13;97240.16;;;17.06;57.33
4199;BME280;2113;50.946;14.610;2022-07-29T04:57:41;97233.97;;;17.07;57.14
4199;BME280;2113;50.946;14.610;2022-07-29T05:00:10;97229.38;;;17.10;57.27
4199;BME280;2113;50.946;14.610;2022-07-29T05:02:38;97226.63;;;17.40;57.14
4199;BME280;2113;50.946;14.610;2022-07-29T05:05:07;97220.63;;;17.53;57.34
4199;BME280;2113;50.946;14.610;2022-07-29T05:07:35;97225.31;;;17.48;56.72
4199;BME280;2113;50.946;14.610;2022-07-29T05:10:05;97222.03;;;17.44;57.71
4199;BME280;2113;50.946;14.610;2022-07-29T05:12:33;97229.84;;;17.31;58.34
4199;BME280;2113;50.946;14.610;2022-07-29T05:15:01;97221.03;;;17.18;58.66
4199;BME280;2113;50.946;14.610;2022-07-29T05:17:28;97230.22;;;17.11;59.04
4199;BME280;2113;50.946;14.610;2022-07-29T05:19:56;97224.00;;;17.12;58.12
4199;BME280;2113;50.946;14.610;2022-07-29T05:22:24;97234.34;;;17.15;58.00
4199;BME280;2113;50.946;14.610;2022-07-29T05:24:52;97231.06;;;17.26;57.80
4199;BME280;2113;50.946;14.610;2022-07-29T05:27:21;97230.13;;;17.12;59.01
4199;BME280;2113;50.946;14.610;2022-07-29T05:29:49;97230.78;;;17.01;58.28
4199;BME280;2113;50.946;14.610;2022-07-29T05:32:18;97236.63;;;17.35;57.71
4199;BME280;2113;50.946;14.610;2022-07-29T05:34:46;97231.75;;;17.29;57.83
4199;BME280;2113;50.946;14.610;2022-07-29T05:37:18;97226.47;;;17.29;58.55
4199;BME280;2113;50.946;14.610;2022-07-29T05:39:46;97234.53;;;17.40;58.75
4199;BME280;2113;50.946;14.610;2022-07-29T05:42:24;97234.34;;;17.15;58.79
4199;BME280;2113;50.946;14.610;2022-07-29T05:44:52;97229.75;;;17.18;58.41
4199;BME280;2113;50.946;14.610;2022-07-29T05:47:20;97230.13;;;17.12;58.90
4199;BME280;2113;50.946;14.610;2022-07-29T05:49:48;97230.69;;;17.32;58.52
4199;BME280;2113;50.946;14.610;2022-07-29T05:52:17;97236.81;;;17.47;58.31
4199;BME280;2113;50.946;14.610;2022-07-29T05:54:45;97232.53;;;17.73;58.15
4199;BME280;2113;50.946;14.610;2022-07-29T05:57:15;97231.72;;;17.87;57.77
4199;BME280;2113;50.946;14.610;2022-07-29T05:59:44;97236.00;;;18.02;56.68
4199;BME280;2113;50.946;14.610;2022-07-29T06:02:12;97227.63;;;18.23;55.90
4199;BME280;2113;50.946;14.610;2022-07-29T06:04:40;97234.88;;;18.86;54.10
4199;BME280;2113;50.946;14.610;2022-07-29T06:07:08;97227.59;;;19.54;52.25
4199;BME280;2113;50.946;14.610;2022-07-29T06:09:37;97222.72;;;20.10;50.10
4199;BME280;2113;50.946;14.610;2022-07-29T06:12:05;97234.63;;;21.11;47.07
4199;BME280;2113;50.946;14.610;2022-07-29T06:14:34;97226.88;;;22.32;44.98
4199;BME280;2113;50.946;14.610;2022-07-29T06:17:03;97226.44;;;23.01;41.31
4199;BME280;2113;50.946;14.610;2022-07-29T06:19:33;97212.22;;;23.54;37.52
4199;BME280;2113;50.946;14.610;2022-07-29T06:22:02;97216.78;;;24.62;35.93
4199;BME280;2113;50.946;14.610;2022-07-29T06:24:30;97220.78;;;25.15;35.92
4199;BME280;2113;50.946;14.610;2022-07-29T06:26:58;97223.28;;;25.17;34.89
4199;BME280;2113;50.946;14.610;2022-07-29T06:29:26;97215.44;;;25.25;34.58
4199;BME280;2113;50.946;14.610;2022-07-29T06:31:54;97213.97;;;24.84;33.34
4199;BME280;2113;50.946;14.610;2022-07-29T06:34:24;97216.06;;;24.51;35.55
4199;BME280;2113;50.946;14.610;2022-07-29T06:36:52;97219.41;;;24.23;37.21
4199;BME280;2113;50.946;14.610;2022-07-29T06:39:20;97225.41;;;23.14;39.25
4199;BME280;2113;50.946;14.610;2022-07-29T06:41:49;97233.81;;;22.44;40.12
4199;BME280;2113;50.946;14.610;2022-07-29T06:44:18;97231.84;;;22.58;39.94
4199;BME280;2113;50.946;14.610;2022-07-29T06:46:46;97228.25;;;23.22;40.28
4199;BME280;2113;50.946;14.610;2022-07-29T06:49:16;97231.09;;;24.11;38.17
4199;BME280;2113;50.946;14.610;2022-07-29T06:51:45;97233.66;;;24.22;37.98
4199;BME280;2113;50.946;14.610;2022-07-29T06:54:13;97236.25;;;24.63;37.51
4199;BME280;2113;50.946;14.610;2022-07-29T06:56:41;97233.47;;;25.41;34.08
4199;BME280;2113;50.946;14.610;2022-07-29T06:59:10;97236.25;;;25.77;33.64
4199;BME280;2113;50.946;14.610;2022-07-29T07:01:41;97225.09;;;29.04;28.05
4199;BME280;2113;50.946;14.610;2022-07-29T07:04:10;97213.06;;;33.18;22.07
4199;BME280;2113;50.946;14.610;2022-07-29T07:06:39;97201.53;;;34.95;20.53
4199;BME280;2113;50.946;14.610;2022-07-29T07:09:08;97207.97;;;34.87;19.35
4199;BME280;2113;50.946;14.610;2022-07-29T07:11:36;97207.78;;;33.38;21.23
4199;BME280;2113;50.946;14.610;2022-07-29T07:14:04;97215.97;;;34.34;19.90
4199;BME280;2113;50.946;14.610;2022-07-29T07:16:32;97200.69;;;35.21;19.53
4199;BME280;2113;50.946;14.610;2022-07-29T07:19:00;97202.59;;;36.76;18.09
4199;BME280;2113;50.946;14.610;2022-07-29T07:21:28;97201.88;;;37.56;15.99
4199;BME280;2113;50.946;14.610;2022-07-29T07:23:57;97199.41;;;35.44;18.73
4199;BME280;2113;50.946;14.610;2022-07-29T07:26:27;97208.03;;;34.26;20.54
4199;BME280;2113;50.946;14.610;2022-07-29T07:28:55;97199.03;;;34.80;20.12
4199;BME280;2113;50.946;14.610;2022-07-29T07:31:22;97206.09;;;32.80;21.15
4199;BME280;2113;50.946;14.610;2022-07-29T07:33:57;97208.88;;;32.93;22.25
4199;BME280;2113;50.946;14.610;2022-07-29T07:36:26;97204.09;;;36.40;18.99
4199;BME280;2113;50.946;14.610;2022-07-29T07:38:54;97196.88;;;34.42;19.66
4199;BME280;2113;50.946;14.610;2022-07-29T07:41:22;97204.66;;;32.84;21.16
4199;BME280;2113;50.946;14.610;2022-07-29T07:43:51;97203.09;;;35.63;18.87
4199;BME280;2113;50.946;14.610;2022-07-29T07:46:19;97202.44;;;35.81;20.56
4199;BME280;2113;50.946;14.610;2022-07-29T07:48:47;97209.44;;;37.36;17.61
4199;BME280;2113;50.946;14.610;2022-07-29T07:51:15;97203.88;;;37.68;17.53
4199;BME280;2113;50.946;14.610;2022-07-29T07:53:43;97200.06;;;36.81;18.53
4199;BME280;2113;50.946;14.610;2022-07-29T07:56:11;97202.91;;;32.70;22.93
4199;BME280;2113;50.946;14.610;2022-07-29T07:58:39;97201.09;;;32.19;23.71
4199;BME280;2113;50.946;14.610;2022-07-29T08:01:09;97211.44;;;31.86;24.36
4199;BME280;2113;50.946;14.610;2022-07-29T08:03:37;97216.66;;;29.48;25.88
4199;BME280;2113;50.946;14.610;2022-07-29T08:06:06;97210.78;;;30.86;25.01
4199;BME280;2113;50.946;14.610;2022-07-29T08:08:34;97214.50;;;31.68;23.30
4199;BME280;2113;50.946;14.610;2022-07-29T08:11:02;97205.03;;;32.38;24.13
4199;BME280;2113;50.946;14.610;2022-07-29T08:13:36;97205.09;;;33.38;23.81
4199;BME280;2113;50.946;14.610;2022-07-29T08:16:05;97207.31;;;32.19;24.80
4199;BME280;2113;50.946;14.610;2022-07-29T08:18:41;97197.19;;;33.64;22.86
4199;BME280;2113;50.946;14.610;2022-07-29T08:21:10;97195.47;;;35.40;21.21
4199;BME280;2113;50.946;14.610;2022-07-29T08:23:42;97195.91;;;37.91;17.23
4199;BME280;2113;50.946;14.610;2022-07-29T08:26:25;97185.19;;;41.53;14.85
4199;BME280;2113;50.946;14.610;2022-07-29T08:28:53;97185.38;;;40.33;14.65
4199;BME280;2113;50.946;14.610;2022-07-29T08:31:25;97187.00;;;40.62;14.49
4199;BME280;2113;50.946;14.610;2022-07-29T08:33:55;97178.72;;;42.25;13.30
4199;BME280;2113;50.946;14.610;2022-07-29T08:36:26;97180.94;;;41.23;13.52
4199;BME280;2113;50.946;14.610;2022-07-29T08:38:54;97186.41;;;36.70;18.67
4199;BME280;2113;50.946;14.610;2022-07-29T08:41:23;97181.25;;;41.09;14.17
4199;BME280;2113;50.946;14.610;2022-07-29T08:43:51;97174.66;;;39.38;15.85
4199;BME280;2113;50.946;14.610;2022-07-29T08:46:20;97183.66;;;39.27;16.42
4199;BME280;2113;50.946;14.610;2022-07-29T08:48:48;97180.94;;;40.43;15.25
4199;BME280;2113;50.946;14.610;2022-07-29T08:51:19;97179.47;;;39.83;15.37
4199;BME280;2113;50.946;14.610;2022-07-29T08:53:49;97178.66;;;38.88;15.11
4199;BME280;2113;50.946;14.610;2022-07-29T08:56:18;97177.69;;;36.61;17.77
4199;BME280;2113;50.946;14.610;2022-07-29T08:58:47;97186.91;;;33.46;20.46
4199;BME280;2113;50.946;14.610;2022-07-29T09:01:22;97180.69;;;32.89;22.13
4199;BME280;2113;50.946;14.610;2022-07-29T09:04:10;97176.41;;;35.93;19.67
4199;BME280;2113;50.946;14.610;2022-07-29T09:06:43;97187.72;;;35.63;19.13
4199;BME280;2113;50.946;14.610;2022-07-29T09:09:12;97183.22;;;34.90;21.34
4199;BME280;2113;50.946;14.610;2022-07-29T09:11:41;97196.50;;;33.55;21.99
4199;BME280;2113;50.946;14.610;2022-07-29T09:14:11;97195.13;;;31.42;24.16
4199;BME280;2113;50.946;14.610;2022-07-29T09:16:52;97198.19;;;31.25;25.16
4199;BME280;2113;50.946;14.610;2022-07-29T09:19:28;97202.06;;;29.75;26.91
4199;BME280;2113;50.946;14.610;2022-07-29T09:21:59;97206.06;;;28.82;28.64
4199;BME280;2113;50.946;14.610;2022-07-29T09:24:37;97205.53;;;29.03;28.60
4199;BME280;2113;50.946;14.610;2022-07-29T09:27:12;97202.34;;;29.00;28.42
4199;BME280;2113;50.946;14.610;2022-07-29T09:29:45;97202.16;;;29.09;28.59
4199;BME280;2113;50.946;14.610;2022-07-29T09:32:14;97203.72;;;28.63;29.30
4199;BME280;2113;50.946;14.610;2022-07-29T09:34:42;97205.88;;;29.08;29.40
4199;BME280;2113;50.946;14.610;2022-07-29T09:37:25;97206.44;;;29.52;29.65
4199;BME280;2113;50.946;14.610;2022-07-29T09:39:53;97207.88;;;28.98;28.69
4199;BME280;2113;50.946;14.610;2022-07-29T09:42:28;97202.19;;;29.26;28.59
4199;BME280;2113;50.946;14.610;2022-07-29T09:44:56;97204.91;;;28.68;29.54
4199;BME280;2113;50.946;14.610;2022-07-29T09:47:40;97202.50;;;29.39;28.74
4199;BME280;2113;50.946;14.610;2022-07-29T09:50:08;97204.94;;;28.09;30.67
4199;BME280;2113;50.946;14.610;2022-07-29T09:52:45;97204.72;;;28.62;31.54
4199;BME280;2113;50.946;14.610;2022-07-29T09:55:13;97210.09;;;29.75;29.19
4199;BME280;2113;50.946;14.610;2022-07-29T09:57:46;97208.56;;;29.17;29.72
4199;BME280;2113;50.946;14.610;2022-07-29T10:00:15;97208.03;;;29.85;29.65
4199;BME280;2113;50.946;14.610;2022-07-29T10:02:46;97211.38;;;29.07;29.75
4199;BME280;2113;50.946;14.610;2022-07-29T10:05:21;97203.22;;;29.73;29.48
4199;BME280;2113;50.946;14.610;2022-07-29T10:07:51;97202.81;;;29.36;28.89
4199;BME280;2113;50.946;14.610;2022-07-29T10:10:24;97205.75;;;29.74;29.54
4199;BME280;2113;50.946;14.610;2022-07-29T10:12:54;97202.84;;;29.03;30.18
4199;BME280;2113;50.946;14.610;2022-07-29T10:15:28;97204.31;;;29.47;29.02
4199;BME280;2113;50.946;14.610;2022-07-29T10:17:57;97203.84;;;29.02;30.05
4199;BME280;2113;50.946;14.610;2022-07-29T10:20:26;97197.31;;;29.30;29.88
4199;BME280;2113;50.946;14.610;2022-07-29T10:22:56;97196.81;;;29.09;30.20
4199;BME280;2113;50.946;14.610;2022-07-29T10:25:25;97195.69;;;28.71;31.21
4199;BME280;2113;50.946;14.610;2022-07-29T10:27:54;97201.75;;;27.98;31.55
4199;BME280;2113;50.946;14.610;2022-07-29T10:30:24;97190.41;;;28.20;31.66
4199;BME280;2113;50.946;14.610;2022-07-29T10:33:09;97191.47;;;28.44;31.96
4199;BME280;2113;50.946;14.610;2022-07-29T10:35:44;97202.53;;;28.74;30.12
4199;BME280;2113;50.946;14.610;2022-07-29T10:38:34;97200.84;;;29.22;30.33
4199;BME280;2113;50.946;14.610;2022-07-29T10:41:34;97198.84;;;29.07;29.82
4199;BME280;2113;50.946;14.610;2022-07-29T10:44:14;97197.19;;;28.90;29.74
4199;BME280;2113;50.946;14.610;2022-07-29T10:46:45;97190.84;;;28.91;30.26
4199;BME280;2113;50.946;14.610;2022-07-29T10:49:16;97189.50;;;28.79;32.56
4199;BME280;2113;50.946;14.610;2022-07-29T10:51:55;97184.75;;;28.23;32.44
4199;BME280;2113;50.946;14.610;2022-07-29T10:54:40;97183.72;;;28.16;31.69
4199;BME280;2113;50.946;14.610;2022-07-29T10:57:24;97185.06;;;28.04;31.80
4199;BME280;2113;50.946;14.610;2022-07-29T11:00:30;97189.38;;;28.05;31.37
4199;BME280;2113;50.946;14.610;2022-07-29T11:02:58;97192.66;;;27.82;31.92
4199;BME280;2113;50.946;14.610;2022-07-29T11:05:52;97192.97;;;27.87;31.38
4199;BME280;2113;50.946;14.610;2022-07-29T11:08:22;97185.78;;;28.22;33.27
4199;BME280;2113;50.946;14.610;2022-07-29T11:14:11;97187.56;;;29.45;28.90
4199;BME280;2113;50.946;14.610;2022-07-29T11:16:58;97189.66;;;28.94;30.19
4199;BME280;2113;50.946;14.610;2022-07-29T11:19:26;97184.78;;;28.48;30.81
4199;BME280;2113;50.946;14.610;2022-07-29T11:21:56;97188.50;;;28.63;29.88
4199;BME280;2113;50.946;14.610;2022-07-29T11:24:26;97190.66;;;29.17;29.81
4199;BME280;2113;50.946;14.610;2022-07-29T11:27:15;97182.81;;;29.63;31.09
4199;BME280;2113;50.946;14.610;2022-07-29T11:30:06;97189.94;;;29.40;30.53
4199;BME280;2113;50.946;14.610;2022-07-29T11:32:38;97182.22;;;29.93;29.57
4199;BME280;2113;50.946;14.610;2022-07-29T11:35:12;97179.91;;;30.90;28.06
4199;BME280;2113;50.946;14.610;2022-07-29T11:37:44;97173.06;;;31.02;26.76
4199;BME280;2113;50.946;14.610;2022-07-29T11:40:21;97177.00;;;30.69;25.52
4199;BME280;2113;50.946;14.610;2022-07-29T11:42:49;97173.16;;;30.94;26.77
4199;BME280;2113;50.946;14.610;2022-07-29T11:45:25;97177.16;;;31.28;26.50
4199;BME280;2113;50.946;14.610;2022-07-29T11:48:19;97175.34;;;30.68;28.18
4199;BME280;2113;50.946;14.610;2022-07-29T11:50:57;97176.88;;;30.85;26.42
4199;BME280;2113;50.946;14.610;2022-07-29T11:53:25;97170.00;;;30.68;28.24
4199;BME280;2113;50.946;14.610;2022-07-29T11:56:14;97175.00;;;30.48;26.86
4199;BME280;2113;50.946;14.610;2022-07-29T11:59:02;97174.97;;;30.24;28.28
4199;BME280;2113;50.946;14.610;2022-07-29T12:01:35;97169.66;;;30.16;27.95
4199;BME280;2113;50.946;14.610;2022-07-29T12:04:03;97167.78;;;29.94;27.85
4199;BME280;2113;50.946;14.610;2022-07-29T12:06:32;97170.56;;;29.77;28.33
4199;BME280;2113;50.946;14.610;2022-07-29T12:09:06;97157.31;;;30.07;27.89
4199;BME280;2113;50.946;14.610;2022-07-29T12:11:40;97162.34;;;30.79;26.37
4199;BME280;2113;50.946;14.610;2022-07-29T12:14:26;97167.53;;;30.81;27.02
4199;BME280;2113;50.946;14.610;2022-07-29T12:16:56;97169.66;;;30.71;26.89
4199;BME280;2113;50.946;14.610;2022-07-29T12:19:24;97163.44;;;31.23;25.90
4199;BME280;2113;50.946;14.610;2022-07-29T12:21:54;97168.91;;;31.00;26.22
4199;BME280;2113;50.946;14.610;2022-07-29T12:24:26;97157.88;;;30.25;27.66
4199;BME280;2113;50.946;14.610;2022-07-29T12:26:59;97161.22;;;30.74;26.58
4199;BME280;2113;50.946;14.610;2022-07-29T12:29:28;97156.78;;;31.78;26.89
4199;BME280;2113;50.946;14.610;2022-07-29T12:32:03;97153.06;;;31.20;26.71
4199;BME280;2113;50.946;14.610;2022-07-29T12:34:46;97163.53;;;31.30;26.20
4199;BME280;2113;50.946;14.610;2022-07-29T12:37:14;97162.81;;;29.35;28.85
4199;BME280;2113;50.946;14.610;2022-07-29T12:39:42;97162.88;;;30.37;27.33
4199;BME280;2113;50.946;14.610;2022-07-29T12:42:11;97152.38;;;29.96;26.63
4199;BME280;2113;50.946;14.610;2022-07-29T12:44:45;97157.22;;;30.23;27.84
4199;BME280;2113;50.946;14.610;2022-07-29T12:47:16;97157.78;;;30.80;28.31
4199;BME280;2113;50.946;14.610;2022-07-29T12:49:45;97158.69;;;30.95;29.13
4199;BME280;2113;50.946;14.610;2022-07-29T12:52:29;97148.91;;;31.02;27.72
4199;BME280;2113;50.946;14.610;2022-07-29T12:54:58;97148.63;;;31.27;26.04
4199;BME280;2113;50.946;14.610;2022-07-29T12:57:26;97159.66;;;29.39;27.67
4199;BME280;2113;50.946;14.610;2022-07-29T13:00:05;97143.50;;;30.64;27.28
4199;BME280;2113;50.946;14.610;2022-07-29T13:02:38;97147.44;;;31.15;26.88
4199;BME280;2113;50.946;14.610;2022-07-29T13:05:07;97147.78;;;31.12;25.76
4199;BME280;2113;50.946;14.610;2022-07-29T13:07:37;97135.41;;;30.73;27.48
4199;BME280;2113;50.946;14.610;2022-07-29T13:10:22;97140.13;;;30.86;26.84
4199;BME280;2113;50.946;14.610;2022-07-29T13:13:04;97134.50;;;29.88;26.17
4199;BME280;2113;50.946;14.610;2022-07-29T13:15:33;97129.78;;;30.82;26.17
4199;BME280;2113;50.946;14.610;2022-07-29T13:18:04;97135.31;;;31.34;24.62
4199;BME280;2113;50.946;14.610;2022-07-29T13:20:32;97137.47;;;29.62;27.96
4199;BME280;2113;50.946;14.610;2022-07-29T13:23:00;97140.34;;;28.88;28.94
4199;BME280;2113;50.946;14.610;2022-07-29T13:25:30;97126.13;;;30.14;28.39
4199;BME280;2113;50.946;14.610;2022-07-29T13:27:59;97131.63;;;30.44;26.16
4199;BME280;2113;50.946;14.610;2022-07-29T13:30:27;97138.69;;;28.54;28.60
4199;BME280;2113;50.946;14.610;2022-07-29T13:32:56;97140.63;;;27.95;29.90
4199;BME280;2113;50.946;14.610;2022-07-29T13:35:26;97136.66;;;28.23;30.31